createdAt,value
2022-11-20T00:00:09.487Z,1.77
2022-11-20T00:01:09.457Z,1.77
2022-11-20T00:02:09.509Z,1.77
2022-11-20T00:03:09.445Z,1.77
2022-11-20T00:04:09.427Z,1.79
2022-11-20T00:05:09.394Z,1.76
2022-11-20T00:06:09.415Z,1.72
2022-11-20T00:07:09.511Z,1.68
2022-11-20T00:08:09.373Z,1.66
2022-11-20T00:09:09.400Z,1.66
2022-11-20T00:10:09.377Z,1.66
2022-11-20T00:11:14.243Z,1.66
2022-11-20T00:12:10.343Z,1.65
2022-11-20T00:13:09.335Z,1.68
2022-11-20T00:14:09.330Z,1.66
2022-11-20T00:15:09.416Z,1.66
2022-11-20T00:16:09.335Z,1.66
2022-11-20T00:17:09.332Z,1.68
2022-11-20T00:18:09.276Z,1.63
2022-11-20T00:19:09.255Z,1.60
2022-11-20T00:20:09.254Z,1.60
2022-11-20T00:21:09.246Z,1.59
2022-11-20T00:22:09.251Z,1.60
2022-11-20T00:23:09.247Z,1.60
2022-11-20T00:24:09.235Z,1.59
2022-11-20T00:25:09.234Z,1.59
2022-11-20T00:26:09.226Z,1.58
2022-11-20T00:27:09.228Z,1.58
2022-11-20T00:28:09.276Z,1.55
2022-11-20T00:29:09.209Z,1.55
2022-11-20T00:30:13.660Z,1.58
2022-11-20T00:31:10.169Z,1.60
2022-11-20T00:32:09.208Z,1.58
2022-11-20T00:33:09.167Z,1.59
2022-11-20T00:34:09.139Z,1.62
2022-11-20T00:35:09.108Z,1.63
2022-11-20T00:36:09.118Z,1.60
2022-11-20T00:37:09.130Z,1.59
2022-11-20T00:38:09.106Z,1.58
2022-11-20T00:39:09.086Z,1.59
2022-11-20T00:40:09.107Z,1.59
2022-11-20T00:41:09.018Z,1.58
2022-11-20T00:42:09.099Z,1.58
2022-11-20T00:43:09.045Z,1.59
2022-11-20T00:44:09.012Z,1.60
2022-11-20T00:45:09.035Z,1.60
2022-11-20T00:46:09.020Z,1.58
2022-11-20T00:47:09.002Z,1.59
2022-11-20T00:48:08.990Z,1.59
2022-11-20T00:49:08.992Z,1.62
2022-11-20T00:50:08.950Z,1.60
2022-11-20T00:51:08.967Z,1.62
2022-11-20T00:52:08.990Z,1.62
2022-11-20T00:53:08.951Z,1.63
2022-11-20T00:54:08.960Z,1.63
2022-11-20T00:55:08.910Z,1.65
2022-11-20T00:56:08.924Z,1.65
2022-11-20T00:57:08.888Z,1.65
2022-11-20T00:58:14.033Z,1.65
2022-11-20T00:59:09.865Z,1.66
2022-11-20T01:00:08.856Z,1.66
2022-11-20T01:01:08.906Z,1.68
2022-11-20T01:02:08.863Z,1.63
2022-11-20T01:03:09.060Z,1.65
2022-11-20T01:04:08.844Z,1.63
2022-11-20T01:05:08.832Z,1.60
2022-11-20T01:06:08.801Z,1.60
2022-11-20T01:07:08.842Z,1.63
2022-11-20T01:08:08.806Z,1.58
2022-11-20T01:09:08.757Z,1.52
2022-11-20T01:10:08.819Z,1.55
2022-11-20T01:11:08.777Z,1.54
2022-11-20T01:12:08.778Z,1.59
2022-11-20T01:13:08.799Z,1.60
2022-11-20T01:14:08.710Z,1.63
2022-11-20T01:15:08.713Z,1.68
2022-11-20T01:16:08.697Z,1.68
2022-11-20T01:17:08.687Z,1.70
2022-11-20T01:18:08.691Z,1.69
2022-11-20T01:19:08.681Z,1.72
2022-11-20T01:20:08.650Z,1.70
2022-11-20T01:21:08.682Z,1.69
2022-11-20T01:22:08.654Z,1.70
2022-11-20T01:23:08.642Z,1.70
2022-11-20T01:24:08.631Z,1.68
2022-11-20T01:25:08.628Z,1.68
2022-11-20T01:26:08.619Z,1.68
2022-11-20T01:27:08.601Z,1.69
2022-11-20T01:28:08.592Z,1.70
2022-11-20T01:29:08.581Z,1.68
2022-11-20T01:30:08.565Z,1.69
2022-11-20T01:31:08.558Z,1.72
2022-11-20T01:32:08.571Z,1.73
2022-11-20T01:33:08.541Z,1.73
2022-11-20T01:34:08.531Z,1.68
2022-11-20T01:35:08.512Z,1.68
2022-11-20T01:36:08.516Z,1.68
2022-11-20T01:37:08.494Z,1.70
2022-11-20T01:38:08.513Z,1.65
2022-11-20T01:39:08.458Z,1.63
2022-11-20T01:40:08.468Z,1.63
2022-11-20T01:41:08.444Z,1.62
2022-11-20T01:42:10.064Z,1.62
2022-11-20T01:43:08.502Z,1.63
2022-11-20T01:44:08.428Z,1.62
2022-11-20T01:45:08.445Z,1.58
2022-11-20T01:46:08.394Z,1.51
2022-11-20T01:47:08.408Z,1.52
2022-11-20T01:48:08.425Z,1.52
2022-11-20T01:49:08.391Z,1.52
2022-11-20T01:50:08.354Z,1.54
2022-11-20T01:51:08.371Z,1.55
2022-11-20T01:52:08.361Z,1.58
2022-11-20T01:53:08.390Z,1.60
2022-11-20T01:54:08.315Z,1.65
2022-11-20T01:55:08.324Z,1.68
2022-11-20T01:56:08.348Z,1.69
2022-11-20T01:57:08.304Z,1.69
2022-11-20T01:58:08.303Z,1.72
2022-11-20T01:59:08.304Z,1.70
2022-11-20T02:00:08.263Z,1.72
2022-11-20T02:01:08.315Z,1.72
2022-11-20T02:02:08.259Z,1.70
2022-11-20T02:03:08.289Z,1.70
2022-11-20T02:04:08.248Z,1.73
2022-11-20T02:05:08.210Z,1.70
2022-11-20T02:06:08.206Z,1.70
2022-11-20T02:07:08.246Z,1.69
2022-11-20T02:08:08.177Z,1.68
2022-11-20T02:09:08.179Z,1.66
2022-11-20T02:10:08.241Z,1.68
2022-11-20T02:11:08.178Z,1.66
2022-11-20T02:12:08.132Z,1.66
2022-11-20T02:13:08.153Z,1.63
2022-11-20T02:14:08.146Z,1.62
2022-11-20T02:15:08.124Z,1.58
2022-11-20T02:16:08.106Z,1.55
2022-11-20T02:17:08.124Z,1.52
2022-11-20T02:18:08.096Z,1.54
2022-11-20T02:19:08.090Z,1.58
2022-11-20T02:20:08.078Z,1.52
2022-11-20T02:21:08.073Z,1.52
2022-11-20T02:22:08.036Z,1.51
2022-11-20T02:23:08.028Z,1.55
2022-11-20T02:24:08.061Z,1.54
2022-11-20T02:25:08.027Z,1.54
2022-11-20T02:26:07.998Z,1.55
2022-11-20T02:27:07.989Z,1.55
2022-11-20T02:28:07.985Z,1.52
2022-11-20T02:29:08.008Z,1.50
2022-11-20T02:30:07.955Z,1.48
2022-11-20T02:31:07.960Z,1.48
2022-11-20T02:32:08.426Z,1.50
2022-11-20T02:33:07.968Z,1.50
2022-11-20T02:34:07.929Z,1.48
2022-11-20T02:35:07.956Z,1.47
2022-11-20T02:36:07.938Z,1.47
2022-11-20T02:37:07.892Z,1.47
2022-11-20T02:38:07.938Z,1.44
2022-11-20T02:39:07.909Z,1.44
2022-11-20T02:40:07.859Z,1.42
2022-11-20T02:41:07.872Z,1.41
2022-11-20T02:42:07.867Z,1.37
2022-11-20T02:43:07.818Z,1.37
2022-11-20T02:44:07.860Z,1.36
2022-11-20T02:45:07.800Z,1.34
2022-11-20T02:46:07.856Z,1.36
2022-11-20T02:47:07.863Z,1.36
2022-11-20T02:48:07.811Z,1.34
2022-11-20T02:49:07.819Z,1.32
2022-11-20T02:50:07.776Z,1.32
2022-11-20T02:51:07.750Z,1.33
2022-11-20T02:52:07.739Z,1.33
2022-11-20T02:53:07.789Z,1.33
2022-11-20T02:54:07.748Z,1.32
2022-11-20T02:55:07.713Z,1.32
2022-11-20T02:56:07.693Z,1.34
2022-11-20T02:57:07.690Z,1.33
2022-11-20T02:58:07.694Z,1.30
2022-11-20T02:59:07.691Z,1.30
2022-11-20T03:00:07.674Z,1.29
2022-11-20T03:01:07.732Z,1.27
2022-11-20T03:02:07.653Z,1.29
2022-11-20T03:03:07.682Z,1.27
2022-11-20T03:04:07.615Z,1.32
2022-11-20T03:05:07.647Z,1.33
2022-11-20T03:06:07.612Z,1.34
2022-11-20T03:07:07.653Z,1.36
2022-11-20T03:08:07.602Z,1.41
2022-11-20T03:09:07.587Z,1.40
2022-11-20T03:10:07.612Z,1.37
2022-11-20T03:11:07.539Z,1.36
2022-11-20T03:12:07.571Z,1.34
2022-11-20T03:13:07.551Z,1.33
2022-11-20T03:14:07.523Z,1.34
2022-11-20T03:15:07.494Z,1.36
2022-11-20T03:16:07.490Z,1.36
2022-11-20T03:17:07.505Z,1.33
2022-11-20T03:18:07.482Z,1.34
2022-11-20T03:19:07.852Z,1.33
2022-11-20T03:20:07.470Z,1.34
2022-11-20T03:21:07.486Z,1.30
2022-11-20T03:22:07.435Z,1.29
2022-11-20T03:23:07.445Z,1.22
2022-11-20T03:24:07.470Z,1.18
2022-11-20T03:25:07.411Z,1.22
2022-11-20T03:26:07.427Z,1.26
2022-11-20T03:27:07.392Z,1.24
2022-11-20T03:28:07.384Z,1.27
2022-11-20T03:29:07.384Z,1.27
2022-11-20T03:30:07.402Z,1.27
2022-11-20T03:31:07.364Z,1.27
2022-11-20T03:32:07.333Z,1.27
2022-11-20T03:33:07.363Z,1.30
2022-11-20T03:34:07.317Z,1.32
2022-11-20T03:35:07.347Z,1.34
2022-11-20T03:36:07.348Z,1.37
2022-11-20T03:37:07.286Z,1.36
2022-11-20T03:38:07.293Z,1.34
2022-11-20T03:39:07.265Z,1.33
2022-11-20T03:40:07.285Z,1.34
2022-11-20T03:41:07.264Z,1.37
2022-11-20T03:42:07.237Z,1.37
2022-11-20T03:43:07.268Z,1.37
2022-11-20T03:44:07.205Z,1.40
2022-11-20T03:45:07.246Z,1.40
2022-11-20T03:46:07.208Z,1.41
2022-11-20T03:47:07.220Z,1.44
2022-11-20T03:48:07.204Z,1.44
2022-11-20T03:49:07.171Z,1.45
2022-11-20T03:50:07.194Z,1.45
2022-11-20T03:51:07.153Z,1.45
2022-11-20T03:52:07.131Z,1.47
2022-11-20T03:53:07.127Z,1.48
2022-11-20T03:54:07.163Z,1.47
2022-11-20T03:55:07.126Z,1.45
2022-11-20T03:56:07.106Z,1.45
2022-11-20T03:57:07.098Z,1.36
2022-11-20T03:58:07.098Z,1.34
2022-11-20T03:59:07.185Z,1.30
2022-11-20T04:00:07.085Z,1.30
2022-11-20T04:01:07.047Z,1.32
2022-11-20T04:02:07.073Z,1.34
2022-11-20T04:03:07.049Z,1.34
2022-11-20T04:04:07.124Z,1.34
2022-11-20T04:05:07.027Z,1.36
2022-11-20T04:06:07.021Z,1.33
2022-11-20T04:07:07.019Z,1.37
2022-11-20T04:08:07.022Z,1.36
2022-11-20T04:09:06.994Z,1.32
2022-11-20T04:10:07.014Z,1.34
2022-11-20T04:11:06.941Z,1.34
2022-11-20T04:12:06.961Z,1.36
2022-11-20T04:13:06.948Z,1.36
2022-11-20T04:14:06.920Z,1.40
2022-11-20T04:15:06.936Z,1.40
2022-11-20T04:16:06.910Z,1.40
2022-11-20T04:17:06.868Z,1.42
2022-11-20T04:18:06.879Z,1.44
2022-11-20T04:19:06.884Z,1.44
2022-11-20T04:20:06.874Z,1.44
2022-11-20T04:21:06.860Z,1.44
2022-11-20T04:22:06.849Z,1.44
2022-11-20T04:23:06.919Z,1.45
2022-11-20T04:24:06.834Z,1.47
2022-11-20T04:25:06.844Z,1.48
2022-11-20T04:26:06.789Z,1.48
2022-11-20T04:27:06.781Z,1.45
2022-11-20T04:28:06.798Z,1.47
2022-11-20T04:29:06.803Z,1.45
2022-11-20T04:30:06.798Z,1.44
2022-11-20T04:31:06.750Z,1.41
2022-11-20T04:32:06.739Z,1.41
2022-11-20T04:33:06.786Z,1.40
2022-11-20T04:34:06.741Z,1.37
2022-11-20T04:35:06.751Z,1.36
2022-11-20T04:36:06.705Z,1.33
2022-11-20T04:37:06.723Z,1.32
2022-11-20T04:38:06.693Z,1.33
2022-11-20T04:39:06.721Z,1.32
2022-11-20T04:40:06.745Z,1.32
2022-11-20T04:41:06.632Z,1.32
2022-11-20T04:42:06.690Z,1.30
2022-11-20T04:43:06.629Z,1.30
2022-11-20T04:44:06.638Z,1.30
2022-11-20T04:45:06.640Z,1.29
2022-11-20T04:46:06.610Z,1.27
2022-11-20T04:47:06.633Z,1.20
2022-11-20T04:48:06.593Z,1.18
2022-11-20T04:49:06.573Z,1.20
2022-11-20T04:50:06.813Z,1.22
2022-11-20T04:51:06.546Z,1.20
2022-11-20T04:52:06.565Z,1.22
2022-11-20T04:53:06.579Z,1.18
2022-11-20T04:54:06.560Z,1.15
2022-11-20T04:55:06.625Z,1.15
2022-11-20T04:56:06.516Z,1.14
2022-11-20T04:57:11.365Z,1.15
2022-11-20T04:58:07.481Z,1.15
2022-11-20T04:59:06.488Z,1.12
2022-11-20T05:00:06.538Z,1.14
2022-11-20T05:01:06.547Z,1.23
2022-11-20T05:02:06.435Z,1.27
2022-11-20T05:03:06.421Z,1.30
2022-11-20T05:04:06.473Z,1.32
2022-11-20T05:05:06.439Z,1.32
2022-11-20T05:06:06.404Z,1.29
2022-11-20T05:07:06.559Z,1.29
2022-11-20T05:08:06.404Z,1.29
2022-11-20T05:09:06.574Z,1.24
2022-11-20T05:10:06.391Z,1.27
2022-11-20T05:11:06.381Z,1.20
2022-11-20T05:12:06.364Z,1.18
2022-11-20T05:13:06.358Z,1.16
2022-11-20T05:14:06.334Z,1.15
2022-11-20T05:15:06.303Z,1.16
2022-11-20T05:16:06.333Z,1.15
2022-11-20T05:17:06.297Z,1.15
2022-11-20T05:18:06.338Z,1.16
2022-11-20T05:19:06.291Z,1.16
2022-11-20T05:20:06.276Z,1.18
2022-11-20T05:21:06.267Z,1.16
2022-11-20T05:22:06.299Z,1.15
2022-11-20T05:23:06.248Z,1.15
2022-11-20T05:24:06.222Z,1.20
2022-11-20T05:25:06.196Z,1.20
2022-11-20T05:26:06.304Z,1.20
2022-11-20T05:27:06.217Z,1.22
2022-11-20T05:28:06.166Z,1.20
2022-11-20T05:29:06.164Z,1.22
2022-11-20T05:30:06.147Z,1.23
2022-11-20T05:31:06.178Z,1.23
2022-11-20T05:32:06.145Z,1.24
2022-11-20T05:33:06.127Z,1.26
2022-11-20T05:34:06.128Z,1.23
2022-11-20T05:35:06.105Z,1.24
2022-11-20T05:36:06.140Z,1.27
2022-11-20T05:37:06.091Z,1.27
2022-11-20T05:38:06.083Z,1.26
2022-11-20T05:39:06.076Z,1.26
2022-11-20T05:40:06.070Z,1.27
2022-11-20T05:41:06.066Z,1.29
2022-11-20T05:42:06.036Z,1.27
2022-11-20T05:43:06.018Z,1.29
2022-11-20T05:44:06.017Z,1.30
2022-11-20T05:45:06.026Z,1.32
2022-11-20T05:46:06.038Z,1.36
2022-11-20T05:47:05.998Z,1.36
2022-11-20T05:48:05.971Z,1.36
2022-11-20T05:49:05.966Z,1.33
2022-11-20T05:50:05.967Z,1.36
2022-11-20T05:51:06.004Z,1.33
2022-11-20T05:52:06.055Z,1.33
2022-11-20T05:53:06.024Z,1.30
2022-11-20T05:54:05.935Z,1.29
2022-11-20T05:55:05.922Z,1.29
2022-11-20T05:56:05.870Z,1.30
2022-11-20T05:57:05.879Z,1.32
2022-11-20T05:58:05.868Z,1.30
2022-11-20T05:59:05.878Z,1.30
2022-11-20T06:00:05.932Z,1.30
2022-11-20T06:01:05.820Z,1.32
2022-11-20T06:02:05.794Z,1.34
2022-11-20T06:03:05.871Z,1.36
2022-11-20T06:04:05.777Z,1.34
2022-11-20T06:05:05.811Z,1.37
2022-11-20T06:06:05.820Z,1.41
2022-11-20T06:07:05.815Z,1.40
2022-11-20T06:08:05.735Z,1.42
2022-11-20T06:09:05.789Z,1.42
2022-11-20T06:10:05.719Z,1.42
2022-11-20T06:11:05.699Z,1.41
2022-11-20T06:12:05.666Z,1.41
2022-11-20T06:13:05.696Z,1.41
2022-11-20T06:14:05.668Z,1.40
2022-11-20T06:15:05.680Z,1.40
2022-11-20T06:16:05.670Z,1.37
2022-11-20T06:17:05.691Z,1.36
2022-11-20T06:18:05.610Z,1.34
2022-11-20T06:19:05.631Z,1.33
2022-11-20T06:20:05.621Z,1.32
2022-11-20T06:21:05.617Z,1.30
2022-11-20T06:22:05.631Z,1.30
2022-11-20T06:23:05.565Z,1.30
2022-11-20T06:24:05.553Z,1.33
2022-11-20T06:25:05.647Z,1.33
2022-11-20T06:26:05.754Z,1.30
2022-11-20T06:27:05.791Z,1.32
2022-11-20T06:28:05.733Z,1.30
2022-11-20T06:29:05.505Z,1.26
2022-11-20T06:30:05.533Z,1.26
2022-11-20T06:31:05.506Z,1.27
2022-11-20T06:32:05.514Z,1.26
2022-11-20T06:33:05.462Z,1.27
2022-11-20T06:34:05.503Z,1.26
2022-11-20T06:35:05.463Z,1.27
2022-11-20T06:36:10.371Z,1.26
2022-11-20T06:37:06.502Z,1.24
2022-11-20T06:38:05.411Z,1.27
2022-11-20T06:39:05.423Z,1.22
2022-11-20T06:40:05.393Z,1.16
2022-11-20T06:41:05.435Z,1.18
2022-11-20T06:42:05.393Z,1.18
2022-11-20T06:43:05.401Z,1.18
2022-11-20T06:44:05.388Z,1.18
2022-11-20T06:45:05.357Z,1.15
2022-11-20T06:46:05.380Z,1.15
2022-11-20T06:47:05.338Z,1.18
2022-11-20T06:48:05.338Z,1.18
2022-11-20T06:49:05.317Z,1.20
2022-11-20T06:50:05.349Z,1.22
2022-11-20T06:51:05.315Z,1.23
2022-11-20T06:52:05.303Z,1.24
2022-11-20T06:53:05.290Z,1.24
2022-11-20T06:54:05.316Z,1.24
2022-11-20T06:55:05.263Z,1.24
2022-11-20T06:56:05.315Z,1.22
2022-11-20T06:57:05.247Z,1.23
2022-11-20T06:58:05.249Z,1.24
2022-11-20T06:59:05.263Z,1.26
2022-11-20T07:00:05.183Z,1.29
2022-11-20T07:01:05.356Z,1.26
2022-11-20T07:02:05.205Z,1.23
2022-11-20T07:03:05.185Z,1.18
2022-11-20T07:04:05.210Z,1.18
2022-11-20T07:05:05.146Z,1.22
2022-11-20T07:06:05.159Z,1.24
2022-11-20T07:07:05.238Z,1.23
2022-11-20T07:08:05.157Z,1.22
2022-11-20T07:09:09.893Z,1.22
2022-11-20T07:10:06.128Z,1.24
2022-11-20T07:11:05.109Z,1.24
2022-11-20T07:12:05.102Z,1.27
2022-11-20T07:13:05.077Z,1.30
2022-11-20T07:14:05.077Z,1.32
2022-11-20T07:15:05.074Z,1.32
2022-11-20T07:16:05.107Z,1.33
2022-11-20T07:17:05.036Z,1.32
2022-11-20T07:18:05.038Z,1.29
2022-11-20T07:19:04.995Z,1.26
2022-11-20T07:20:05.010Z,1.22
2022-11-20T07:21:05.028Z,1.22
2022-11-20T07:22:04.970Z,1.22
2022-11-20T07:23:04.970Z,1.26
2022-11-20T07:24:04.971Z,1.27
2022-11-20T07:25:04.947Z,1.24
2022-11-20T07:26:04.970Z,1.24
2022-11-20T07:27:04.917Z,1.24
2022-11-20T07:28:04.927Z,1.27
2022-11-20T07:29:04.910Z,1.26
2022-11-20T07:30:04.930Z,1.29
2022-11-20T07:31:04.890Z,1.27
2022-11-20T07:32:04.915Z,1.24
2022-11-20T07:33:04.864Z,1.18
2022-11-20T07:34:05.022Z,1.20
2022-11-20T07:35:04.868Z,1.18
2022-11-20T07:36:04.867Z,1.20
2022-11-20T07:37:10.096Z,1.16
2022-11-20T07:38:05.867Z,1.22
2022-11-20T07:39:04.888Z,1.24
2022-11-20T07:40:05.007Z,1.27
2022-11-20T07:41:04.898Z,1.27
2022-11-20T07:42:04.830Z,1.30
2022-11-20T07:43:04.787Z,1.32
2022-11-20T07:44:04.759Z,1.33
2022-11-20T07:45:04.745Z,1.32
2022-11-20T07:46:04.739Z,1.30
2022-11-20T07:47:04.779Z,1.30
2022-11-20T07:48:04.769Z,1.30
2022-11-20T07:49:04.737Z,1.27
2022-11-20T07:50:04.714Z,1.27
2022-11-20T07:51:04.710Z,1.23
2022-11-20T07:52:05.453Z,1.22
2022-11-20T07:53:04.678Z,1.20
2022-11-20T07:54:04.740Z,1.18
2022-11-20T07:55:04.799Z,1.23
2022-11-20T07:56:04.659Z,1.24
2022-11-20T07:57:04.637Z,1.23
2022-11-20T07:58:04.640Z,1.27
2022-11-20T07:59:04.629Z,1.27
2022-11-20T08:00:04.689Z,1.29
2022-11-20T08:01:04.617Z,1.29
2022-11-20T08:02:04.671Z,1.27
2022-11-20T08:03:04.594Z,1.26
2022-11-20T08:04:04.601Z,1.24
2022-11-20T08:05:04.551Z,1.24
2022-11-20T08:06:04.621Z,1.26
2022-11-20T08:07:04.579Z,1.29
2022-11-20T08:08:04.555Z,1.33
2022-11-20T08:09:04.532Z,1.34
2022-11-20T08:10:04.512Z,1.34
2022-11-20T08:11:04.548Z,1.40
2022-11-20T08:12:04.672Z,1.42
2022-11-20T08:13:04.509Z,1.37
2022-11-20T08:14:04.470Z,1.36
2022-11-20T08:15:07.239Z,1.36
2022-11-20T08:16:05.963Z,1.37
2022-11-20T08:17:04.474Z,1.40
2022-11-20T08:18:29.365Z,1.37
2022-11-20T08:19:05.415Z,1.34
2022-11-20T08:20:04.559Z,1.36
2022-11-20T08:21:04.382Z,1.34
2022-11-20T08:22:04.421Z,1.34
2022-11-20T08:23:04.376Z,1.36
2022-11-20T08:24:04.346Z,1.37
2022-11-20T08:25:04.347Z,1.40
2022-11-20T08:26:04.362Z,1.44
2022-11-20T08:27:04.344Z,1.48
2022-11-20T08:28:15.708Z,1.52
2022-11-20T08:29:05.313Z,1.55
2022-11-20T08:30:04.294Z,1.59
2022-11-20T08:31:04.291Z,1.62
2022-11-20T08:32:04.322Z,1.62
2022-11-20T08:33:04.281Z,1.63
2022-11-20T08:34:08.943Z,1.63
2022-11-20T08:35:05.257Z,1.65
2022-11-20T08:36:04.304Z,1.59
2022-11-20T08:37:04.265Z,1.55
2022-11-20T08:38:04.390Z,1.51
2022-11-20T08:39:04.222Z,1.51
2022-11-20T08:40:05.035Z,1.54
2022-11-20T08:41:04.220Z,1.54
2022-11-20T08:42:04.240Z,1.52
2022-11-20T08:43:04.209Z,1.58
2022-11-20T08:44:04.189Z,1.55
2022-11-20T08:45:04.146Z,1.59
2022-11-20T08:46:04.155Z,1.58
2022-11-20T08:47:04.147Z,1.59
2022-11-20T08:48:04.422Z,1.59
2022-11-20T08:49:04.116Z,1.60
2022-11-20T08:50:04.132Z,1.62
2022-11-20T08:51:04.142Z,1.65
2022-11-20T08:52:04.123Z,1.69
2022-11-20T08:53:04.080Z,1.72
2022-11-20T08:54:04.061Z,1.70
2022-11-20T08:55:04.058Z,1.76
2022-11-20T08:56:04.104Z,1.81
2022-11-20T08:57:04.036Z,1.81
2022-11-20T08:58:04.070Z,1.84
2022-11-20T09:00:06.811Z,1.90
2022-11-20T09:01:04.090Z,1.86
2022-11-20T09:02:04.007Z,1.84
2022-11-20T09:03:03.975Z,1.86
2022-11-20T09:04:03.969Z,1.84
2022-11-20T09:05:03.976Z,1.84
2022-11-20T09:06:03.977Z,1.84
2022-11-20T09:07:04.041Z,1.83
2022-11-20T09:08:03.925Z,1.84
2022-11-20T09:09:06.884Z,1.84
2022-11-20T09:10:23.083Z,1.83
2022-11-20T09:11:04.908Z,1.81
2022-11-20T09:12:03.912Z,1.72
2022-11-20T09:13:03.869Z,1.66
2022-11-20T09:14:03.910Z,1.62
2022-11-20T09:15:03.888Z,1.62
2022-11-20T09:16:03.867Z,1.63
2022-11-20T09:17:03.897Z,1.65
2022-11-20T09:18:03.807Z,1.60
2022-11-20T09:20:04.798Z,1.63
2022-11-20T09:21:03.854Z,1.62
2022-11-20T09:22:03.803Z,1.60
2022-11-20T09:23:03.789Z,1.62
2022-11-20T09:24:03.799Z,1.60
2022-11-20T09:25:03.778Z,1.62
2022-11-20T09:26:03.775Z,1.62
2022-11-20T09:27:03.758Z,1.63
2022-11-20T09:28:03.764Z,1.65
2022-11-20T09:29:03.800Z,1.68
2022-11-20T09:30:03.723Z,1.69
2022-11-20T09:31:03.718Z,1.70
2022-11-20T09:32:03.712Z,1.68
2022-11-20T09:33:03.690Z,1.69
2022-11-20T09:34:03.703Z,1.68
2022-11-20T09:35:03.711Z,1.69
2022-11-20T09:36:03.658Z,1.73
2022-11-20T09:37:06.401Z,1.79
2022-11-20T09:38:03.631Z,1.84
2022-11-20T09:39:03.650Z,1.87
2022-11-20T09:40:03.607Z,1.91
2022-11-20T09:41:03.610Z,1.93
2022-11-20T09:42:03.620Z,1.81
2022-11-20T09:43:03.590Z,1.83
2022-11-20T09:44:03.559Z,1.83
2022-11-20T09:45:03.549Z,1.79
2022-11-20T09:46:03.590Z,1.83
2022-11-20T09:47:03.582Z,1.83
2022-11-20T09:48:03.521Z,1.87
2022-11-20T09:49:03.511Z,1.91
2022-11-20T09:50:03.527Z,1.93
2022-11-20T09:51:03.568Z,1.98
2022-11-20T09:52:03.534Z,2.00
2022-11-20T09:53:03.466Z,2.03
2022-11-20T09:54:03.451Z,1.93
2022-11-20T09:55:03.462Z,1.91
2022-11-20T09:56:03.495Z,1.90
2022-11-20T09:57:03.454Z,1.95
2022-11-20T09:58:03.419Z,1.98
2022-11-20T09:59:03.431Z,1.98
2022-11-20T10:00:03.397Z,1.95
2022-11-20T10:01:03.480Z,1.99
2022-11-20T10:02:03.396Z,2.06
2022-11-20T10:03:03.591Z,2.10
2022-11-20T10:04:03.385Z,2.09
2022-11-20T10:05:03.375Z,2.16
2022-11-20T10:06:03.373Z,2.14
2022-11-20T10:07:30.676Z,2.14
2022-11-20T10:08:04.402Z,2.20
2022-11-20T10:09:03.333Z,2.17
2022-11-20T10:10:03.338Z,2.16
2022-11-20T10:11:03.334Z,2.09
2022-11-20T10:12:03.275Z,2.05
2022-11-20T10:13:03.279Z,2.12
2022-11-20T10:14:03.290Z,2.14
2022-11-20T10:15:03.284Z,2.03
2022-11-20T10:16:03.257Z,2.06
2022-11-20T10:17:03.267Z,2.09
2022-11-20T10:18:03.242Z,2.12
2022-11-20T10:19:03.339Z,2.16
2022-11-20T10:20:03.386Z,2.17
2022-11-20T10:21:03.182Z,2.16
2022-11-20T10:22:03.166Z,2.18
2022-11-20T10:23:03.201Z,2.17
2022-11-20T10:24:03.176Z,2.20
2022-11-20T10:25:03.186Z,2.23
2022-11-20T10:26:03.166Z,2.23
2022-11-20T10:27:03.350Z,2.20
2022-11-20T10:28:03.286Z,2.20
2022-11-20T10:29:08.480Z,2.14
2022-11-20T10:30:04.253Z,2.06
2022-11-20T10:31:03.085Z,2.05
2022-11-20T10:32:03.166Z,2.02
2022-11-20T10:33:03.172Z,2.05
2022-11-20T10:34:11.988Z,2.07
2022-11-20T10:35:04.045Z,2.07
2022-11-20T10:36:03.079Z,2.09
2022-11-20T10:37:03.038Z,2.07
2022-11-20T10:38:03.017Z,2.06
2022-11-20T10:39:03.027Z,2.06
2022-11-20T10:40:03.013Z,2.06
2022-11-20T10:41:02.993Z,2.09
2022-11-20T10:42:03.022Z,2.06
2022-11-20T10:43:02.996Z,2.03
2022-11-20T10:44:02.983Z,2.05
2022-11-20T10:45:06.381Z,2.07
2022-11-20T10:46:02.948Z,2.14
2022-11-20T10:47:02.951Z,2.18
2022-11-20T10:48:02.988Z,2.16
2022-11-20T10:49:02.901Z,2.10
2022-11-20T10:50:02.915Z,2.12
2022-11-20T10:51:02.906Z,2.17
2022-11-20T10:52:02.881Z,2.24
2022-11-20T10:53:02.912Z,2.25
2022-11-20T10:54:03.029Z,2.27
2022-11-20T10:55:02.872Z,2.27
2022-11-20T10:56:02.821Z,2.16
2022-11-20T10:57:02.862Z,2.21
2022-11-20T10:58:02.811Z,2.23
2022-11-20T10:59:02.839Z,2.23
2022-11-20T11:00:02.843Z,2.25
2022-11-20T11:01:02.803Z,2.31
2022-11-20T11:02:03.513Z,2.36
2022-11-20T11:03:02.764Z,2.41
2022-11-20T11:04:02.771Z,2.46
2022-11-20T11:05:02.754Z,2.49
2022-11-20T11:06:02.748Z,2.48
2022-11-20T11:07:02.782Z,2.54
2022-11-20T11:08:02.722Z,2.61
2022-11-20T11:09:02.791Z,2.71
2022-11-20T11:10:02.715Z,2.74
2022-11-20T11:11:02.738Z,2.85
2022-11-20T11:12:06.942Z,3.02
2022-11-20T11:13:02.695Z,3.14
2022-11-20T11:14:02.694Z,3.20
2022-11-20T11:15:02.658Z,3.18
2022-11-20T11:16:02.644Z,3.15
2022-11-20T11:17:02.660Z,3.13
2022-11-20T11:18:02.679Z,3.10
2022-11-20T11:19:02.624Z,3.08
2022-11-20T11:20:02.633Z,3.03
2022-11-20T11:21:02.596Z,2.95
2022-11-20T11:22:02.607Z,2.96
2022-11-20T11:23:02.599Z,2.96
2022-11-20T11:24:19.731Z,2.99
2022-11-20T11:25:03.573Z,3.05
2022-11-20T11:26:02.619Z,3.03
2022-11-20T11:27:02.548Z,2.95
2022-11-20T11:28:02.572Z,2.90
2022-11-20T11:29:02.589Z,2.89
2022-11-20T11:30:02.633Z,2.78
2022-11-20T11:31:02.511Z,2.77
2022-11-20T11:32:02.486Z,2.74
2022-11-20T11:33:02.512Z,2.72
2022-11-20T11:34:02.477Z,2.74
2022-11-20T11:35:02.484Z,2.67
2022-11-20T11:36:02.506Z,2.66
2022-11-20T11:37:02.432Z,2.59
2022-11-20T11:38:02.537Z,2.56
2022-11-20T11:39:02.451Z,2.59
2022-11-20T11:41:03.389Z,2.49
2022-11-20T11:42:02.460Z,2.49
2022-11-20T11:43:02.418Z,2.57
2022-11-20T11:44:02.462Z,2.57
2022-11-20T11:45:02.441Z,2.66
2022-11-20T11:46:02.445Z,2.67
2022-11-20T11:47:02.421Z,2.63
2022-11-20T11:48:02.427Z,2.64
2022-11-20T11:49:02.630Z,2.64
2022-11-20T11:50:02.412Z,2.67
2022-11-20T11:51:02.425Z,2.66
2022-11-20T11:52:02.291Z,2.64
2022-11-20T11:53:02.354Z,2.66
2022-11-20T11:54:02.372Z,2.67
2022-11-20T11:55:07.138Z,2.64
2022-11-20T11:56:03.232Z,2.66
2022-11-20T11:57:02.398Z,2.54
2022-11-20T11:58:02.301Z,2.60
2022-11-20T11:59:02.343Z,2.81
2022-11-20T12:00:02.204Z,2.89
2022-11-20T12:01:02.174Z,2.89
2022-11-20T12:02:02.232Z,2.87
2022-11-20T12:03:02.196Z,2.78
2022-11-20T12:04:02.151Z,2.67
2022-11-20T12:05:02.170Z,2.64
2022-11-20T12:06:02.143Z,2.61
2022-11-20T12:07:18.386Z,2.54
2022-11-20T12:08:06.931Z,2.49
2022-11-20T12:09:03.124Z,2.45
2022-11-20T12:10:02.096Z,2.41
2022-11-20T12:11:02.085Z,2.35
2022-11-20T12:12:02.110Z,2.31
2022-11-20T12:13:02.046Z,2.34
2022-11-20T12:14:02.063Z,2.35
2022-11-20T12:15:02.057Z,2.34
2022-11-20T12:16:02.019Z,2.39
2022-11-20T12:17:02.048Z,2.41
2022-11-20T12:18:02.018Z,2.48
2022-11-20T12:19:02.007Z,2.48
2022-11-20T12:20:01.986Z,2.53
2022-11-20T12:21:01.972Z,2.53
2022-11-20T12:22:04.910Z,2.56
2022-11-20T12:23:01.997Z,2.54
2022-11-20T12:24:01.957Z,2.54
2022-11-20T12:25:01.945Z,2.56
2022-11-20T12:26:01.974Z,2.59
2022-11-20T12:27:01.941Z,2.61
2022-11-20T12:28:01.940Z,2.63
2022-11-20T12:29:01.915Z,2.66
2022-11-20T12:30:01.895Z,2.61
2022-11-20T12:31:01.874Z,2.57
2022-11-20T12:32:01.866Z,2.54
2022-11-20T12:33:01.857Z,2.53
2022-11-20T12:34:01.858Z,2.52
2022-11-20T12:35:01.838Z,2.52
2022-11-20T12:36:01.828Z,2.52
2022-11-20T12:37:01.800Z,2.49
2022-11-20T12:38:01.819Z,2.52
2022-11-20T12:39:02.019Z,2.53
2022-11-20T12:40:01.796Z,2.52
2022-11-20T12:41:01.772Z,2.49
2022-11-20T12:42:01.764Z,2.52
2022-11-20T12:43:01.768Z,2.53
2022-11-20T12:44:01.752Z,2.52
2022-11-20T12:45:01.759Z,2.49
2022-11-20T12:46:01.733Z,2.52
2022-11-20T12:47:01.765Z,2.52
2022-11-20T12:48:01.702Z,2.53
2022-11-20T12:49:01.681Z,2.49
2022-11-20T12:50:01.692Z,2.46
2022-11-20T12:51:14.631Z,2.48
2022-11-20T12:52:02.735Z,2.49
2022-11-20T12:53:01.651Z,2.52
2022-11-20T12:54:01.650Z,2.52
2022-11-20T12:55:01.655Z,2.52
2022-11-20T12:56:01.660Z,2.52
2022-11-20T12:57:04.055Z,2.54
2022-11-20T12:58:01.646Z,2.54
2022-11-20T12:59:01.583Z,2.54
2022-11-20T13:00:01.615Z,2.53
2022-11-20T13:01:01.664Z,2.49
2022-11-20T13:02:01.569Z,2.45
2022-11-20T13:03:01.529Z,2.42
2022-11-20T13:04:04.176Z,2.46
2022-11-20T13:05:02.565Z,2.52
2022-11-20T13:06:01.540Z,2.53
2022-11-20T13:07:01.629Z,2.53
2022-11-20T13:08:01.514Z,2.59
2022-11-20T13:09:01.471Z,2.56
2022-11-20T13:10:01.481Z,2.59
2022-11-20T13:11:01.495Z,2.61
2022-11-20T13:12:01.461Z,2.64
2022-11-20T13:13:01.461Z,2.71
2022-11-20T13:14:01.473Z,2.71
2022-11-20T13:15:01.423Z,2.78
2022-11-20T13:16:01.426Z,2.81
2022-11-20T13:17:05.867Z,2.87
2022-11-20T13:18:01.402Z,2.89
2022-11-20T13:19:01.380Z,2.90
2022-11-20T13:20:01.371Z,2.96
2022-11-20T13:21:01.391Z,2.99